createdAt,value
2023-05-12T00:02:06.437Z,14.77
2023-05-12T00:07:09.432Z,14.72
2023-05-12T00:12:13.843Z,14.67
2023-05-12T00:17:16.771Z,14.61
2023-05-12T00:22:19.738Z,14.49
2023-05-12T00:27:24.292Z,14.44
2023-05-12T00:32:27.830Z,14.43
2023-05-12T00:37:30.866Z,14.41
2023-05-12T00:42:36.575Z,14.29
2023-05-12T00:47:40.848Z,14.38
2023-05-12T00:52:43.976Z,14.42
2023-05-12T00:57:48.284Z,14.38
2023-05-12T01:02:52.924Z,14.21
2023-05-12T01:07:57.564Z,14.28
2023-05-12T01:13:01.942Z,14.32
2023-05-12T01:18:07.625Z,14.19
2023-05-12T01:23:11.019Z,14.13
2023-05-12T01:28:16.143Z,14.16
2023-05-12T01:33:19.435Z,14.15
2023-05-12T01:38:22.999Z,14.12
2023-05-12T01:43:27.232Z,14.03
2023-05-12T01:48:30.158Z,14.19
2023-05-12T01:53:34.635Z,14.01
2023-05-12T01:58:39.443Z,13.96
2023-05-12T02:03:42.814Z,14.03
2023-05-12T02:08:49.419Z,13.94
2023-05-12T02:13:54.282Z,13.93
2023-05-12T02:18:57.687Z,13.92
2023-05-12T02:24:00.822Z,13.84
2023-05-12T02:29:05.087Z,13.83
2023-05-12T02:34:09.015Z,13.83
2023-05-12T02:39:12.092Z,13.76
2023-05-12T02:44:16.738Z,13.72
2023-05-12T02:49:19.886Z,13.77
2023-05-12T02:54:22.932Z,13.67
2023-05-12T02:59:27.545Z,13.56
2023-05-12T03:04:30.567Z,13.57
2023-05-12T03:09:33.701Z,13.55
2023-05-12T03:14:37.976Z,13.52
2023-05-12T03:19:40.882Z,13.46
2023-05-12T03:24:43.871Z,13.45
2023-05-12T03:29:48.125Z,13.38
2023-05-12T03:34:51.179Z,13.37
2023-05-12T03:39:56.122Z,13.39
2023-05-12T03:45:00.766Z,13.36
2023-05-12T03:50:04.270Z,13.38
2023-05-12T03:55:07.928Z,13.36
2023-05-12T04:00:14.239Z,13.45
2023-05-12T04:05:20.301Z,13.57
2023-05-12T04:10:23.274Z,13.55
2023-05-12T04:15:28.011Z,13.60
2023-05-12T04:20:30.881Z,13.73
2023-05-12T04:25:34.291Z,13.83
2023-05-12T04:30:40.524Z,13.68
2023-05-12T04:35:43.446Z,13.87
2023-05-12T04:40:48.488Z,14.51
2023-05-12T04:45:54.329Z,14.38
2023-05-12T04:51:00.076Z,14.50
2023-05-12T04:56:03.255Z,15.21
2023-05-12T05:01:13.668Z,15.45
2023-05-12T05:06:17.065Z,15.51
2023-05-12T05:11:22.305Z,15.79
2023-05-12T05:16:26.824Z,16.44
2023-05-12T05:21:30.021Z,16.29
2023-05-12T05:26:33.320Z,15.47
2023-05-12T05:31:37.698Z,15.74
2023-05-12T05:36:41.773Z,15.47
2023-05-12T05:41:46.009Z,15.90
2023-05-12T05:46:51.586Z,15.59
2023-05-12T05:51:55.377Z,16.43
2023-05-12T05:57:00.732Z,16.51
2023-05-12T06:02:05.386Z,16.33
2023-05-12T06:07:08.553Z,16.08
2023-05-12T06:12:11.623Z,16.79
2023-05-12T06:17:15.848Z,17.30
2023-05-12T06:22:18.788Z,17.67
2023-05-12T06:27:21.785Z,17.28
2023-05-12T06:32:26.420Z,17.27
2023-05-12T06:37:29.422Z,17.45
2023-05-12T06:42:32.345Z,17.27
2023-05-12T06:47:37.597Z,18.15
2023-05-12T06:52:40.483Z,19.34
2023-05-12T06:57:43.387Z,19.42
2023-05-12T07:02:47.713Z,20.95
2023-05-12T07:07:50.621Z,20.65
2023-05-12T07:12:53.546Z,18.66
2023-05-12T07:17:57.984Z,19.50
2023-05-12T07:23:00.894Z,20.31
2023-05-12T07:28:03.761Z,21.26
2023-05-12T07:33:08.666Z,22.53
2023-05-12T07:38:11.601Z,22.63
2023-05-12T07:43:14.508Z,23.07
2023-05-12T07:48:18.802Z,20.15
2023-05-12T07:53:21.760Z,21.89
2023-05-12T07:58:24.602Z,22.21
2023-05-12T08:03:28.917Z,22.54
2023-05-12T08:08:31.872Z,22.67
2023-05-12T08:13:34.835Z,22.21
2023-05-12T08:18:39.161Z,21.99
2023-05-12T08:23:42.165Z,22.26
2023-05-12T08:28:45.032Z,23.35
2023-05-12T08:33:51.815Z,22.77
2023-05-12T08:38:56.254Z,23.42
2023-05-12T08:44:00.421Z,24.11
2023-05-12T08:49:05.761Z,23.57
2023-05-12T08:54:10.634Z,24.44
2023-05-12T08:59:14.603Z,22.49
2023-05-12T09:04:19.100Z,23.23
2023-05-12T09:09:22.570Z,22.35
2023-05-12T09:14:26.597Z,22.75
2023-05-12T09:19:31.457Z,23.67
2023-05-12T09:24:38.341Z,24.48
2023-05-12T09:29:59.145Z,23.07
2023-05-12T09:35:11.076Z,24.25
2023-05-12T09:40:14.656Z,24.16
2023-05-12T09:45:17.654Z,23.63
2023-05-12T09:50:22.918Z,22.95
2023-05-12T09:55:26.013Z,24.04
2023-05-12T10:00:46.242Z,23.35
2023-05-12T10:05:58.680Z,22.96
2023-05-12T10:11:05.059Z,23.67
2023-05-12T10:16:08.992Z,23.60
2023-05-12T10:21:14.126Z,23.61
2023-05-12T10:26:17.310Z,23.10
2023-05-12T10:31:22.279Z,23.20
2023-05-12T10:36:27.362Z,22.54
2023-05-12T10:41:31.142Z,23.15
2023-05-12T10:46:34.077Z,23.04
2023-05-12T10:51:49.660Z,24.35
2023-05-12T10:56:53.732Z,24.96
2023-05-12T11:02:03.285Z,23.76
2023-05-12T11:07:09.924Z,24.66
2023-05-12T11:12:14.128Z,25.56
2023-05-12T11:17:17.409Z,25.23
2023-05-12T11:22:24.522Z,24.23
2023-05-12T11:27:28.157Z,25.38
2023-05-12T11:32:31.083Z,25.98
2023-05-12T11:37:39.455Z,23.73
2023-05-12T11:42:46.076Z,24.69
2023-05-12T11:47:49.288Z,24.17
2023-05-12T11:52:54.633Z,23.93
2023-05-12T11:58:00.886Z,23.11
2023-05-12T12:03:09.010Z,23.02
2023-05-12T12:08:15.304Z,23.44
2023-05-12T12:13:21.260Z,23.36
2023-05-12T12:18:24.206Z,23.07
2023-05-12T12:23:31.692Z,22.67
2023-05-12T12:28:40.838Z,22.02
2023-05-12T12:33:43.931Z,21.99
2023-05-12T12:38:48.885Z,22.27
2023-05-12T12:43:51.803Z,22.28
2023-05-12T12:48:54.744Z,21.76
2023-05-12T12:53:59.057Z,21.80
2023-05-12T12:59:01.939Z,21.81
2023-05-12T13:04:05.015Z,21.88
2023-05-12T13:09:09.320Z,21.17
2023-05-12T13:14:12.223Z,21.87
2023-05-12T13:19:15.318Z,22.21
2023-05-12T13:24:19.617Z,21.90
2023-05-12T13:29:22.568Z,21.69
2023-05-12T13:34:25.837Z,21.33
2023-05-12T13:39:30.071Z,22.23
2023-05-12T13:44:32.908Z,22.27
2023-05-12T13:49:35.993Z,21.59
2023-05-12T13:54:40.249Z,22.03
2023-05-12T13:59:43.210Z,21.75
2023-05-12T14:04:46.150Z,21.12
2023-05-12T14:09:50.423Z,21.04
2023-05-12T14:14:53.437Z,21.91
2023-05-12T14:19:56.312Z,22.05
2023-05-12T14:25:00.557Z,22.32
2023-05-12T14:30:03.764Z,21.60
2023-05-12T14:35:08.390Z,21.67
2023-05-12T14:40:14.395Z,21.18
2023-05-12T14:45:17.823Z,21.39
2023-05-12T14:50:21.524Z,20.96
2023-05-12T14:55:26.085Z,21.37
2023-05-12T15:00:28.998Z,21.21
2023-05-12T15:05:52.885Z,21.37
2023-05-12T15:10:56.525Z,21.26
2023-05-12T15:15:59.402Z,21.51
2023-05-12T15:21:02.314Z,21.80
2023-05-12T15:26:26.933Z,21.81
2023-05-12T15:31:31.789Z,21.89
2023-05-12T15:36:34.788Z,21.85
2023-05-12T15:41:39.279Z,21.92
2023-05-12T15:46:42.656Z,22.10
2023-05-12T15:51:45.684Z,22.21
2023-05-12T15:56:50.860Z,22.70
2023-05-12T16:01:53.759Z,23.48
2023-05-12T16:06:56.957Z,23.65
2023-05-12T16:12:01.277Z,22.82
2023-05-12T16:17:04.160Z,21.48
2023-05-12T16:22:07.068Z,20.22
2023-05-12T16:27:11.458Z,19.42
2023-05-12T16:32:14.400Z,19.42
2023-05-12T16:37:17.388Z,19.14
2023-05-12T16:42:21.596Z,18.53
2023-05-12T16:47:24.532Z,17.80
2023-05-12T16:52:28.707Z,18.27
2023-05-12T16:57:33.007Z,18.38
2023-05-12T17:02:36.162Z,18.52
2023-05-12T17:07:39.165Z,18.38
2023-05-12T17:12:43.549Z,18.12
2023-05-12T17:17:46.477Z,18.06
2023-05-12T17:22:51.600Z,18.03
2023-05-12T17:27:55.862Z,17.98
2023-05-12T17:32:58.837Z,17.72
2023-05-12T17:38:02.059Z,17.38
2023-05-12T17:43:06.738Z,16.94
2023-05-12T17:48:09.921Z,17.18
2023-05-12T17:53:12.888Z,17.17
2023-05-12T17:58:17.209Z,17.35
2023-05-12T18:03:23.678Z,17.40
2023-05-12T18:08:27.198Z,17.38
2023-05-12T18:13:31.553Z,17.50
2023-05-12T18:18:34.481Z,17.53
2023-05-12T18:23:37.357Z,17.58
2023-05-12T18:28:41.852Z,17.45
2023-05-12T18:33:47.585Z,17.28
2023-05-12T18:38:50.515Z,17.12
2023-05-12T18:43:55.063Z,16.95
2023-05-12T18:48:57.954Z,16.94
2023-05-12T18:54:00.874Z,17.03
2023-05-12T18:59:05.153Z,16.77
2023-05-12T19:04:08.090Z,16.42
2023-05-12T19:09:11.054Z,16.36
2023-05-12T19:14:16.021Z,16.25
2023-05-12T19:19:18.968Z,16.03
2023-05-12T19:24:25.526Z,15.99
2023-05-12T19:29:29.822Z,15.77
2023-05-12T19:34:32.972Z,15.76
2023-05-12T19:39:35.863Z,15.48
2023-05-12T19:44:40.147Z,15.19
2023-05-12T19:49:43.089Z,15.32
2023-05-12T19:54:46.282Z,15.35
2023-05-12T19:59:50.703Z,15.26
2023-05-12T20:04:53.644Z,15.28
2023-05-12T20:09:56.568Z,15.05
2023-05-12T20:15:00.880Z,14.76
2023-05-12T20:20:04.268Z,14.70
2023-05-12T20:25:07.845Z,14.50
2023-05-12T20:30:13.301Z,14.40
2023-05-12T20:35:16.831Z,14.33
2023-05-12T20:40:20.226Z,14.23
2023-05-12T20:45:24.673Z,14.09
2023-05-12T20:50:27.971Z,13.97
2023-05-12T20:55:33.206Z,13.83
2023-05-12T21:00:37.515Z,13.70
2023-05-12T21:05:41.743Z,13.63
2023-05-12T21:10:44.666Z,13.41
2023-05-12T21:15:48.896Z,13.19
2023-05-12T21:20:51.806Z,13.27
2023-05-12T21:25:54.769Z,12.76
2023-05-12T21:30:59.080Z,12.83
2023-05-12T21:36:02.006Z,12.80
2023-05-12T21:41:04.996Z,12.69
2023-05-12T21:46:09.250Z,12.83
2023-05-12T21:51:12.842Z,12.71
2023-05-12T21:56:15.904Z,12.68
2023-05-12T22:01:20.515Z,12.56
2023-05-12T22:06:23.514Z,12.59
2023-05-12T22:11:26.767Z,12.59
2023-05-12T22:16:40.720Z,12.42
2023-05-12T22:21:44.599Z,12.29
2023-05-12T22:26:47.514Z,12.32
2023-05-12T22:31:51.777Z,12.19
2023-05-12T22:36:54.741Z,12.10
2023-05-12T22:41:57.644Z,12.15
2023-05-12T22:47:02.016Z,12.14
2023-05-12T22:52:05.860Z,12.10
2023-05-12T22:57:08.779Z,11.99
2023-05-12T23:02:13.125Z,11.91
2023-05-12T23:07:15.984Z,11.84
2023-05-12T23:12:18.895Z,11.77
2023-05-12T23:17:23.226Z,11.65
2023-05-12T23:22:26.211Z,11.58
2023-05-12T23:27:29.112Z,11.59
2023-05-12T23:32:33.616Z,11.41
2023-05-12T23:37:36.667Z,11.31
2023-05-12T23:42:39.612Z,11.28
2023-05-12T23:47:44.095Z,11.21
2023-05-12T23:52:46.981Z,11.05
2023-05-12T23:57:50.323Z,11.10
